Time;durP1;ratioP1;P1;durP2;ratioP2;P2;SDS_P1;SDS_P2;PMS_P1;PMS_P2;Temp;Humidity;BMP_temperature;BMP_pressure;BME280_temperature;BME280_humidity;BME280_pressure;Samples;Min_cycle;Max_cycle;Signal;HPM_P1;HPM_P2
2021/01/18 00:00:35;;;;;;;;;79.50;61.00;;;;;;;;12233971;29;8846;-53
2021/01/18 00:06:38;;;;;;;;;74.50;55.00;;;;;;;;12233105;29;8873;-55
2021/01/18 00:12:44;;;;;;;;;73.50;58.25;;;;;;;;12232721;29;8850;-53
2021/01/18 00:18:45;;;;;;;;;83.25;63.75;;;;;;;;12235924;29;8850;-55
2021/01/18 00:24:47;;;;;;;;;72.50;59.00;;;;;;;;12227584;29;8869;-55
2021/01/18 00:30:48;;;;;;;;;76.25;60.50;;;;;;;;12226143;29;8854;-57
2021/01/18 00:36:51;;;;;;;;;76.75;58.50;;;;;;;;12225763;29;8855;-55
2021/01/18 00:42:53;;;;;;;;;67.00;54.25;;;;;;;;12228341;29;8846;-55
2021/01/18 00:48:54;;;;;;;;;74.00;56.50;;;;;;;;12222407;29;8846;-55
2021/01/18 00:54:56;;;;;;;;;44.00;44.00;;;;;;;;12220432;29;8875;-55
2021/01/18 01:01:10;;;;;;;;;56.75;48.00;;;;;;;;12227211;29;9699;-55
2021/01/18 01:07:13;;;;;;;;;67.00;50.25;;;;;;;;12224847;29;8863;-54
2021/01/18 01:13:14;;;;;;;;;64.75;45.50;;;;;;;;12228627;29;9663;-55
2021/01/18 01:19:16;;;;;;;;;68.75;49.50;;;;;;;;12231800;29;8873;-54
2021/01/18 01:25:20;;;;;;;;;61.25;48.75;;;;;;;;12233320;29;8839;-54
2021/01/18 01:31:22;;;;;;;;;60.50;46.00;;;;;;;;12239952;29;8901;-53
2021/01/18 01:37:27;;;;;;;;;65.25;49.50;;;;;;;;12238456;29;8973;-54
2021/01/18 01:43:30;;;;;;;;;52.00;46.00;;;;;;;;12239503;29;9383;-52
2021/01/18 01:49:31;;;;;;;;;58.75;48.50;;;;;;;;12240269;29;8838;-54
2021/01/18 01:55:33;;;;;;;;;60.50;50.75;;;;;;;;12236471;29;8949;-54
2021/01/18 02:01:36;;;;;;;;;58.00;49.00;;;;;;;;12240694;29;8854;-53
2021/01/18 02:07:38;;;;;;;;;61.25;49.50;;;;;;;;12239216;29;8866;-54
2021/01/18 02:14:01;;;;;;;;;60.75;52.00;;;;;;;;12239601;29;8878;-55
2021/01/18 02:20:49;;;;;;;;;65.75;50.00;;;;;;;;12235575;29;8840;-55
2021/01/18 02:27:20;;;;;;;;;73.00;57.00;;;;;;;;12239822;29;8838;-54
2021/01/18 02:33:58;;;;;;;;;67.00;53.50;;;;;;;;12229282;29;8858;-55
2021/01/18 02:40:11;;;;;;;;;67.00;54.00;;;;;;;;12225215;29;8872;-55
2021/01/18 02:46:15;;;;;;;;;67.75;54.00;;;;;;;;12234039;29;8862;-55
2021/01/18 02:52:16;;;;;;;;;60.00;48.75;;;;;;;;12230964;29;8861;-56
2021/01/18 02:58:22;;;;;;;;;69.75;50.50;;;;;;;;12230013;29;8850;-56
2021/01/18 03:05:02;;;;;;;;;67.00;52.00;;;;;;;;12232145;29;8878;-54
2021/01/18 03:11:10;;;;;;;;;68.00;51.00;;;;;;;;12224694;29;8862;-54
2021/01/18 03:17:19;;;;;;;;;53.00;43.75;;;;;;;;12232425;29;8847;-54
2021/01/18 03:23:21;;;;;;;;;58.50;48.25;;;;;;;;12229730;29;9610;-53
2021/01/18 03:29:22;;;;;;;;;60.50;51.75;;;;;;;;12234385;29;8941;-54
2021/01/18 03:35:24;;;;;;;;;68.50;54.50;;;;;;;;12231405;29;8885;-53
2021/01/18 03:41:25;;;;;;;;;56.00;40.00;;;;;;;;12234514;29;8889;-54
2021/01/18 03:47:27;;;;;;;;;71.50;56.50;;;;;;;;12231740;29;8846;-55
2021/01/18 03:53:28;;;;;;;;;69.00;54.00;;;;;;;;12230322;29;8846;-56
2021/01/18 03:59:29;;;;;;;;;69.25;52.50;;;;;;;;12235922;29;8929;-55
2021/01/18 04:05:31;;;;;;;;;71.75;52.25;;;;;;;;12232385;29;8953;-55
2021/01/18 04:11:33;;;;;;;;;67.25;54.25;;;;;;;;12236238;29;8834;-55
2021/01/18 04:17:35;;;;;;;;;62.75;49.00;;;;;;;;12231938;29;8823;-53
2021/01/18 04:23:37;;;;;;;;;62.00;52.00;;;;;;;;12232695;29;8842;-55
2021/01/18 04:29:38;;;;;;;;;67.50;49.50;;;;;;;;12235939;29;8846;-53
2021/01/18 04:35:39;;;;;;;;;74.25;57.50;;;;;;;;12212195;29;8864;-54
2021/01/18 04:41:43;;;;;;;;;69.00;51.00;;;;;;;;12226591;29;8869;-53
2021/01/18 04:47:47;;;;;;;;;64.50;52.00;;;;;;;;12224429;29;8854;-55
2021/01/18 04:53:53;;;;;;;;;80.25;58.00;;;;;;;;12226768;29;8834;-55
2021/01/18 05:00:01;;;;;;;;;66.75;54.00;;;;;;;;12220663;29;8846;-53
2021/01/18 05:06:11;;;;;;;;;63.00;51.50;;;;;;;;12651318;23;8876;-49
2021/01/18 05:12:13;;;;;;;;;47.50;45.00;;;;;;;;12219512;29;8849;-50
2021/01/18 05:18:14;;;;;;;;;72.75;53.50;;;;;;;;12215110;29;9412;-53
2021/01/18 05:24:17;;;;;;;;;61.00;48.75;;;;;;;;12222069;29;8857;-49
2021/01/18 05:30:20;;;;;;;;;49.50;45.00;;;;;;;;12214730;29;8966;-52
2021/01/18 05:36:41;;;;;;;;;79.50;55.25;;;;;;;;12215705;29;8841;-52
2021/01/18 05:42:42;;;;;;;;;66.50;53.00;;;;;;;;12216686;29;8975;-50
2021/01/18 05:48:44;;;;;;;;;58.00;44.50;;;;;;;;12212547;29;8857;-51
2021/01/18 05:54:45;;;;;;;;;69.25;52.00;;;;;;;;12217729;29;8842;-54
2021/01/18 06:00:55;;;;;;;;;74.00;58.00;;;;;;;;12221471;29;8869;-53
2021/01/18 06:07:01;;;;;;;;;63.75;51.25;;;;;;;;12214051;29;8890;-53
2021/01/18 06:13:03;;;;;;;;;65.25;53.75;;;;;;;;12224644;29;8869;-53
2021/01/18 06:19:10;;;;;;;;;70.50;57.00;;;;;;;;12216944;29;8841;-51
2021/01/18 06:25:13;;;;;;;;;75.75;58.50;;;;;;;;12223974;29;8916;-51
2021/01/18 06:31:15;;;;;;;;;72.75;59.50;;;;;;;;12222742;29;8850;-53
2021/01/18 06:37:20;;;;;;;;;73.75;59.00;;;;;;;;12217686;29;8842;-53
2021/01/18 06:43:22;;;;;;;;;83.00;62.25;;;;;;;;12220945;29;8855;-53
2021/01/18 06:49:25;;;;;;;;;70.50;55.50;;;;;;;;12223731;29;9606;-55
2021/01/18 06:55:29;;;;;;;;;92.00;68.50;;;;;;;;12218127;29;8872;-55
2021/01/18 07:01:34;;;;;;;;;75.75;60.25;;;;;;;;12195607;29;8836;-53
2021/01/18 07:07:38;;;;;;;;;80.50;63.75;;;;;;;;12215332;29;8903;-51
2021/01/18 07:13:42;;;;;;;;;84.00;64.00;;;;;;;;12227673;29;8854;-53
2021/01/18 07:19:49;;;;;;;;;82.00;63.50;;;;;;;;12215604;29;9880;-54
2021/01/18 07:26:06;;;;;;;;;80.50;64.50;;;;;;;;12234781;29;8842;-53
2021/01/18 07:32:08;;;;;;;;;76.75;61.75;;;;;;;;12225304;29;8891;-52
2021/01/18 07:38:18;;;;;;;;;76.25;61.25;;;;;;;;12225587;29;9584;-51
2021/01/18 07:44:42;;;;;;;;;90.25;66.25;;;;;;;;12223103;29;8854;-49
2021/01/18 07:50:44;;;;;;;;;87.25;66.25;;;;;;;;12228621;29;8847;-53
2021/01/18 07:56:45;;;;;;;;;87.25;67.50;;;;;;;;12224571;29;10256;-54
2021/01/18 08:02:52;;;;;;;;;80.75;64.25;;;;;;;;12213171;29;8966;-53
2021/01/18 08:08:53;;;;;;;;;79.75;66.00;;;;;;;;12217045;29;8871;-51
2021/01/18 08:15:13;;;;;;;;;104.25;77.50;;;;;;;;12223666;29;8873;-53
2021/01/18 08:21:39;;;;;;;;;89.25;67.00;;;;;;;;12214803;29;8979;-54
2021/01/18 08:27:48;;;;;;;;;96.75;74.00;;;;;;;;12213892;29;8858;-51
2021/01/18 08:33:49;;;;;;;;;75.75;56.75;;;;;;;;12214958;29;9300;-55
2021/01/18 08:40:06;;;;;;;;;87.75;68.50;;;;;;;;12216736;29;8858;-56
2021/01/18 08:46:38;;;;;;;;;93.00;71.00;;;;;;;;12212915;29;8831;-56
2021/01/18 08:52:40;;;;;;;;;85.00;67.00;;;;;;;;12214112;29;8878;-52
2021/01/18 08:58:43;;;;;;;;;84.50;65.75;;;;;;;;12204553;29;8870;-49
2021/01/18 09:04:45;;;;;;;;;92.50;68.50;;;;;;;;12172379;29;1510905;-56
2021/01/18 09:10:52;;;;;;;;;71.00;57.50;;;;;;;;12211174;29;9339;-59
2021/01/18 09:17:05;;;;;;;;;87.00;65.75;;;;;;;;12231566;29;8862;-52
2021/01/18 09:23:09;;;;;;;;;90.75;67.00;;;;;;;;12219438;29;8878;-55
2021/01/18 09:29:30;;;;;;;;;80.00;64.75;;;;;;;;12208696;29;8857;-51
2021/01/18 09:35:34;;;;;;;;;73.75;57.00;;;;;;;;12215803;29;8943;-52
2021/01/18 09:41:35;;;;;;;;;61.75;51.00;;;;;;;;12219814;29;8969;-53
2021/01/18 09:47:37;;;;;;;;;77.00;59.25;;;;;;;;12229974;29;9655;-52
2021/01/18 09:53:39;;;;;;;;;76.25;59.75;;;;;;;;12228071;29;9608;-56
2021/01/18 09:59:44;;;;;;;;;81.00;62.75;;;;;;;;12237048;29;8887;-56
2021/01/18 10:05:47;;;;;;;;;74.75;59.25;;;;;;;;12239604;29;8964;-52
2021/01/18 10:11:49;;;;;;;;;77.00;63.25;;;;;;;;12230139;29;8845;-58
2021/01/18 10:17:52;;;;;;;;;91.25;68.50;;;;;;;;12230017;29;8854;-56
2021/01/18 10:23:53;;;;;;;;;81.25;60.75;;;;;;;;12219259;29;8997;-55
2021/01/18 10:30:29;;;;;;;;;59.00;48.25;;;;;;;;12234167;29;8964;-52
2021/01/18 10:36:31;;;;;;;;;72.75;54.75;;;;;;;;12218720;29;8837;-54
2021/01/18 10:42:54;;;;;;;;;77.25;61.50;;;;;;;;12226778;29;8866;-53
2021/01/18 10:48:57;;;;;;;;;60.67;52.00;;;;;;;;12230268;29;8861;-55
2021/01/18 10:55:00;;;;;;;;;75.00;58.00;;;;;;;;12213835;29;8883;-52
2021/01/18 11:01:16;;;;;;;;;73.33;59.00;;;;;;;;12217054;29;8974;-49
2021/01/18 11:07:18;;;;;;;;;79.00;60.00;;;;;;;;12222748;29;8889;-51
2021/01/18 11:13:19;;;;;;;;;72.50;57.50;;;;;;;;12226555;29;8959;-54
2021/01/18 11:19:22;;;;;;;;;77.75;62.50;;;;;;;;12224935;29;8868;-55
2021/01/18 11:25:24;;;;;;;;;78.00;60.33;;;;;;;;12227624;29;8847;-54
2021/01/18 11:31:25;;;;;;;;;75.33;58.00;;;;;;;;12220125;29;8843;-55
2021/01/18 11:37:26;;;;;;;;;70.00;57.00;;;;;;;;12222795;29;8885;-55
2021/01/18 11:43:31;;;;;;;;;73.33;57.67;;;;;;;;12218343;29;8957;-55
2021/01/18 11:49:35;;;;;;;;;68.67;56.00;;;;;;;;12226726;29;8860;-57
2021/01/18 11:55:36;;;;;;;;;68.00;54.00;;;;;;;;12226179;29;8877;-54
2021/01/18 12:01:47;;;;;;;;;71.33;57.33;;;;;;;;12217027;29;9608;-54
2021/01/18 12:07:49;;;;;;;;;43.00;42.00;;;;;;;;12216027;29;8856;-53
2021/01/18 12:13:50;;;;;;;;;68.00;56.67;;;;;;;;12216070;29;8869;-56
2021/01/18 12:19:52;;;;;;;;;77.33;58.67;;;;;;;;12211757;29;8877;-54
2021/01/18 12:25:54;;;;;;;;;72.33;59.00;;;;;;;;12208678;29;8839;-56
2021/01/18 12:31:56;;;;;;;;;73.00;56.33;;;;;;;;12217170;29;8851;-55
2021/01/18 12:37:58;;;;;;;;;53.67;47.33;;;;;;;;12215199;29;8846;-56
2021/01/18 12:43:59;;;;;;;;;76.00;58.33;;;;;;;;12220172;29;8846;-57
2021/01/18 12:50:01;;;;;;;;;69.00;57.33;;;;;;;;12211877;29;8845;-55
2021/01/18 12:56:03;;;;;;;;;78.00;63.00;;;;;;;;12223292;29;8843;-55
2021/01/18 13:02:06;;;;;;;;;82.67;66.33;;;;;;;;12212479;29;8879;-55
2021/01/18 13:08:08;;;;;;;;;74.67;60.00;;;;;;;;12223143;29;8906;-56
2021/01/18 13:14:10;;;;;;;;;81.33;64.00;;;;;;;;12203004;29;8826;-58
2021/01/18 13:20:12;;;;;;;;;75.67;58.00;;;;;;;;12219703;29;8846;-58
2021/01/18 13:26:15;;;;;;;;;64.67;51.67;;;;;;;;12219807;29;9658;-59
2021/01/18 13:32:16;;;;;;;;;60.33;52.67;;;;;;;;12227396;29;8945;-55
2021/01/18 13:38:18;;;;;;;;;72.33;58.00;;;;;;;;12211122;29;8850;-55
2021/01/18 13:44:21;;;;;;;;;76.00;57.00;;;;;;;;12212478;29;8923;-55
2021/01/18 13:50:23;;;;;;;;;68.33;54.00;;;;;;;;12219410;29;8877;-57
2021/01/18 13:56:25;;;;;;;;;68.00;55.00;;;;;;;;12221927;29;8863;-57
2021/01/18 14:02:27;;;;;;;;;58.67;48.67;;;;;;;;12219167;29;8965;-55
2021/01/18 14:08:28;;;;;;;;;67.00;56.33;;;;;;;;12228772;29;8854;-52
2021/01/18 14:14:30;;;;;;;;;67.00;51.33;;;;;;;;12223859;29;8853;-54
2021/01/18 14:20:31;;;;;;;;;76.00;58.00;;;;;;;;12226953;29;8896;-56
2021/01/18 14:26:39;;;;;;;;;74.00;59.50;;;;;;;;12227467;29;8846;-52
2021/01/18 14:32:40;;;;;;;;;67.50;57.25;;;;;;;;12218270;29;8859;-53
2021/01/18 14:38:42;;;;;;;;;70.75;55.00;;;;;;;;12226857;29;8968;-57
2021/01/18 14:44:43;;;;;;;;;71.50;55.75;;;;;;;;12218514;29;8857;-56
2021/01/18 14:50:45;;;;;;;;;73.75;54.75;;;;;;;;12238535;29;8846;-55
2021/01/18 14:56:46;;;;;;;;;59.50;51.25;;;;;;;;12237035;29;8843;-54
2021/01/18 15:02:48;;;;;;;;;79.50;62.50;;;;;;;;12223296;29;9032;-52
2021/01/18 15:08:50;;;;;;;;;73.00;58.50;;;;;;;;12231732;29;8938;-55
2021/01/18 15:14:51;;;;;;;;;68.50;54.25;;;;;;;;12222709;29;8846;-54
2021/01/18 15:20:58;;;;;;;;;69.33;54.00;;;;;;;;12236713;29;9630;-54
2021/01/18 15:26:59;;;;;;;;;73.33;58.33;;;;;;;;12231310;29;8847;-52
2021/01/18 15:33:01;;;;;;;;;81.25;61.25;;;;;;;;12236254;29;8833;-54
2021/01/18 15:39:03;;;;;;;;;73.00;60.00;;;;;;;;12227832;29;8907;-56
2021/01/18 15:45:05;;;;;;;;;69.00;55.33;;;;;;;;12221491;29;8869;-54
2021/01/18 15:51:15;;;;;;;;;76.00;58.00;;;;;;;;12219087;29;8851;-54
2021/01/18 15:57:16;;;;;;;;;74.00;56.25;;;;;;;;12217369;29;8840;-57
2021/01/18 16:03:18;;;;;;;;;41.67;34.00;;;;;;;;12217004;29;8897;-57
2021/01/18 16:09:20;;;;;;;;;65.75;57.00;;;;;;;;12213947;29;8854;-56
2021/01/18 16:15:22;;;;;;;;;62.00;51.75;;;;;;;;12227681;29;8859;-56
2021/01/18 16:21:41;;;;;;;;;66.50;53.75;;;;;;;;12216243;29;8828;-57
2021/01/18 16:27:43;;;;;;;;;74.00;58.00;;;;;;;;12218578;29;8840;-53
2021/01/18 16:33:46;;;;;;;;;73.25;57.50;;;;;;;;12219352;29;8889;-55
2021/01/18 16:39:51;;;;;;;;;70.25;55.50;;;;;;;;12212249;29;8922;-56
2021/01/18 16:45:52;;;;;;;;;74.00;54.25;;;;;;;;12214939;29;8863;-57
2021/01/18 16:51:55;;;;;;;;;70.75;56.00;;;;;;;;12213288;29;9686;-56
2021/01/18 16:57:57;;;;;;;;;68.00;55.75;;;;;;;;12211593;29;9437;-54
2021/01/18 17:03:58;;;;;;;;;73.50;53.50;;;;;;;;12190138;29;8854;-54
2021/01/18 17:10:00;;;;;;;;;68.50;56.50;;;;;;;;12212589;29;8839;-55
2021/01/18 17:16:02;;;;;;;;;70.50;57.25;;;;;;;;12214115;29;8951;-53
2021/01/18 17:22:03;;;;;;;;;65.75;52.25;;;;;;;;12215381;29;8866;-53
2021/01/18 17:28:05;;;;;;;;;74.50;58.50;;;;;;;;12210192;29;8904;-57
2021/01/18 17:34:07;;;;;;;;;77.50;59.50;;;;;;;;12189539;29;8860;-53
2021/01/18 17:40:09;;;;;;;;;71.75;55.75;;;;;;;;12198893;29;8861;-54
2021/01/18 17:46:11;;;;;;;;;78.00;57.75;;;;;;;;12212862;29;8921;-55
2021/01/18 17:52:13;;;;;;;;;73.50;56.50;;;;;;;;12218686;29;8858;-54
2021/01/18 17:58:14;;;;;;;;;75.25;60.00;;;;;;;;12210619;29;9448;-56
2021/01/18 18:04:16;;;;;;;;;80.50;63.25;;;;;;;;12233199;29;8977;-55
2021/01/18 18:10:17;;;;;;;;;78.75;59.50;;;;;;;;12222226;29;8881;-55
2021/01/18 18:16:20;;;;;;;;;58.00;46.75;;;;;;;;12221615;29;8842;-56
2021/01/18 18:22:22;;;;;;;;;70.75;56.50;;;;;;;;12225490;29;8929;-53
2021/01/18 18:28:24;;;;;;;;;72.75;57.00;;;;;;;;12224652;29;8851;-55
2021/01/18 18:34:25;;;;;;;;;82.00;59.00;;;;;;;;12219163;29;8947;-54
2021/01/18 18:40:27;;;;;;;;;72.75;58.75;;;;;;;;12224220;29;8852;-57
2021/01/18 18:46:36;;;;;;;;;79.50;61.25;;;;;;;;12222032;29;8877;-58
2021/01/18 18:52:46;;;;;;;;;66.25;51.00;;;;;;;;12218972;29;8874;-55
2021/01/18 18:58:47;;;;;;;;;60.75;49.00;;;;;;;;12215849;29;8868;-54
2021/01/18 19:04:48;;;;;;;;;65.75;54.00;;;;;;;;12216826;29;8884;-56
2021/01/18 19:10:50;;;;;;;;;67.25;53.00;;;;;;;;12206133;29;8846;-56
2021/01/18 19:16:51;;;;;;;;;68.00;54.00;;;;;;;;12216174;29;9630;-52
2021/01/18 19:22:53;;;;;;;;;61.50;50.25;;;;;;;;12216118;29;8839;-53
2021/01/18 19:28:54;;;;;;;;;58.00;47.50;;;;;;;;12217624;29;8856;-51
2021/01/18 19:34:56;;;;;;;;;59.75;49.50;;;;;;;;12214331;29;8929;-55
2021/01/18 19:40:58;;;;;;;;;52.00;45.75;;;;;;;;12195948;29;8864;-55
2021/01/18 19:47:00;;;;;;;;;58.50;48.50;;;;;;;;12195546;29;8848;-56
2021/01/18 19:53:01;;;;;;;;;65.00;48.75;;;;;;;;12219382;29;8865;-52
2021/01/18 19:59:03;;;;;;;;;65.75;51.00;;;;;;;;12217183;29;8847;-53
2021/01/18 20:05:07;;;;;;;;;64.75;50.50;;;;;;;;12220777;29;9754;-53
2021/01/18 20:11:08;;;;;;;;;56.50;47.25;;;;;;;;12213958;29;8858;-57
2021/01/18 20:17:10;;;;;;;;;66.25;50.75;;;;;;;;12216973;29;8848;-54
2021/01/18 20:23:11;;;;;;;;;64.00;49.00;;;;;;;;12215682;29;9795;-55
2021/01/18 20:29:14;;;;;;;;;68.25;54.25;;;;;;;;12215644;29;8842;-53
2021/01/18 20:35:15;;;;;;;;;67.00;52.00;;;;;;;;12220468;29;8869;-50
2021/01/18 20:41:25;;;;;;;;;69.75;56.75;;;;;;;;12212025;29;8892;-57
2021/01/18 20:47:26;;;;;;;;;54.00;45.00;;;;;;;;12212689;29;8841;-55
2021/01/18 20:53:28;;;;;;;;;69.00;50.50;;;;;;;;12220221;29;8848;-55
2021/01/18 20:59:29;;;;;;;;;65.25;50.25;;;;;;;;12215461;29;8869;-56
2021/01/18 21:05:31;;;;;;;;;71.25;55.75;;;;;;;;12211001;29;8854;-57
2021/01/18 21:11:32;;;;;;;;;71.75;54.00;;;;;;;;12200975;29;8843;-54
2021/01/18 21:17:40;;;;;;;;;53.50;48.50;;;;;;;;12210796;29;8852;-57
2021/01/18 21:23:42;;;;;;;;;75.00;58.50;;;;;;;;12219319;29;8878;-50
2021/01/18 21:29:43;;;;;;;;;77.25;59.75;;;;;;;;12208261;29;8855;-54
2021/01/18 21:35:45;;;;;;;;;69.50;54.00;;;;;;;;12217616;29;8868;-55
2021/01/18 21:41:47;;;;;;;;;77.25;59.50;;;;;;;;12223249;29;8848;-53
2021/01/18 21:47:49;;;;;;;;;65.75;52.00;;;;;;;;12227318;29;9725;-52
2021/01/18 21:53:50;;;;;;;;;67.75;53.00;;;;;;;;12220079;29;9821;-53
2021/01/18 21:59:51;;;;;;;;;55.00;49.00;;;;;;;;12221217;29;8861;-53
2021/01/18 22:05:53;;;;;;;;;69.75;52.25;;;;;;;;12222211;29;8853;-53
2021/01/18 22:11:55;;;;;;;;;64.00;50.75;;;;;;;;12224009;29;8841;-53
2021/01/18 22:17:57;;;;;;;;;66.25;53.00;;;;;;;;12225461;29;8842;-55
2021/01/18 22:23:58;;;;;;;;;107.00;78.75;;;;;;;;12210079;29;8886;-52
2021/01/18 22:30:00;;;;;;;;;111.50;88.25;;;;;;;;12220780;29;8971;-55
2021/01/18 22:36:01;;;;;;;;;103.50;87.00;;;;;;;;12219548;29;8844;-51
2021/01/18 22:42:03;;;;;;;;;106.25;82.50;;;;;;;;12223115;29;8840;-54
2021/01/18 22:48:04;;;;;;;;;102.50;76.75;;;;;;;;12223636;29;9511;-55
2021/01/18 22:54:06;;;;;;;;;100.00;77.00;;;;;;;;12217270;29;9698;-54
2021/01/18 23:00:12;;;;;;;;;100.25;74.50;;;;;;;;12219944;29;8887;-53
2021/01/18 23:06:14;;;;;;;;;91.50;69.50;;;;;;;;12221329;29;9632;-53
2021/01/18 23:12:15;;;;;;;;;89.75;70.00;;;;;;;;12216848;29;8863;-52
2021/01/18 23:18:17;;;;;;;;;91.75;69.50;;;;;;;;12222451;29;8859;-52
2021/01/18 23:24:19;;;;;;;;;94.75;72.50;;;;;;;;12217565;29;8861;-53
2021/01/18 23:30:20;;;;;;;;;95.50;72.25;;;;;;;;12220137;29;8843;-51
2021/01/18 23:36:22;;;;;;;;;94.50;69.50;;;;;;;;12214579;29;8855;-51
2021/01/18 23:42:23;;;;;;;;;93.50;69.75;;;;;;;;12220519;29;8854;-52
2021/01/18 23:48:25;;;;;;;;;97.00;75.50;;;;;;;;12218347;29;8845;-55
2021/01/18 23:54:26;;;;;;;;;75.25;55.00;;;;;;;;12217822;29;8931;-53
